sensor_id;sensor_type;location;lat;lon;timestamp;pressure;altitude;pressure_sealevel;temperature;humidity
24486;BME280;13449;49.374;8.584;2023-03-13T00:01:19;99949.56;;;8.77;85.25
24486;BME280;13449;49.374;8.584;2023-03-13T00:03:48;99947.56;;;8.85;84.52
24486;BME280;13449;49.374;8.584;2023-03-13T00:06:21;99954.44;;;8.96;84.70
24486;BME280;13449;49.374;8.584;2023-03-13T00:08:48;99939.41;;;9.00;84.54
24486;BME280;13449;49.374;8.584;2023-03-13T00:11:15;99934.53;;;9.10;83.85
24486;BME280;13449;49.374;8.584;2023-03-13T00:13:42;99937.31;;;9.16;83.42
24486;BME280;13449;49.374;8.584;2023-03-13T00:16:11;99935.81;;;9.29;83.00
24486;BME280;13449;49.374;8.584;2023-03-13T00:18:44;99931.75;;;9.39;82.31
24486;BME280;13449;49.374;8.584;2023-03-13T00:21:13;99933.38;;;9.55;81.53
24486;BME280;13449;49.374;8.584;2023-03-13T00:23:40;99928.41;;;9.58;81.14
24486;BME280;13449;49.374;8.584;2023-03-13T00:26:13;99921.94;;;9.59;81.17
24486;BME280;13449;49.374;8.584;2023-03-13T00:28:41;99922.38;;;9.63;81.31
24486;BME280;13449;49.374;8.584;2023-03-13T00:31:13;99917.00;;;9.69;80.57
24486;BME280;13449;49.374;8.584;2023-03-13T00:33:42;99905.44;;;9.67;80.65
24486;BME280;13449;49.374;8.584;2023-03-13T00:36:20;99896.69;;;9.72;80.50
24486;BME280;13449;49.374;8.584;2023-03-13T00:38:47;99893.00;;;9.80;80.03
24486;BME280;13449;49.374;8.584;2023-03-13T00:41:17;99893.91;;;9.87;79.46
24486;BME280;13449;49.374;8.584;2023-03-13T00:43:45;99889.34;;;9.94;78.88
24486;BME280;13449;49.374;8.584;2023-03-13T00:46:21;99887.06;;;9.97;78.62
24486;BME280;13449;49.374;8.584;2023-03-13T00:48:56;99876.00;;;9.99;78.81
24486;BME280;13449;49.374;8.584;2023-03-13T00:51:23;99873.53;;;10.04;78.28
24486;BME280;13449;49.374;8.584;2023-03-13T00:53:53;99873.09;;;10.00;78.82
24486;BME280;13449;49.374;8.584;2023-03-13T00:56:22;99865.22;;;10.12;77.75
24486;BME280;13449;49.374;8.584;2023-03-13T00:58:49;99853.94;;;10.15;77.36
24486;BME280;13449;49.374;8.584;2023-03-13T01:01:24;99852.63;;;10.11;77.82
24486;BME280;13449;49.374;8.584;2023-03-13T01:03:58;99850.50;;;10.06;78.37
24486;BME280;13449;49.374;8.584;2023-03-13T01:06:27;99852.38;;;10.06;78.37
24486;BME280;13449;49.374;8.584;2023-03-13T01:08:55;99843.56;;;10.04;78.23
24486;BME280;13449;49.374;8.584;2023-03-13T01:11:26;99837.69;;;10.00;78.66
24486;BME280;13449;49.374;8.584;2023-03-13T01:13:55;99833.72;;;10.03;78.55
24486;BME280;13449;49.374;8.584;2023-03-13T01:16:22;99830.81;;;10.04;78.54
24486;BME280;13449;49.374;8.584;2023-03-13T01:18:54;99820.09;;;10.03;79.02
24486;BME280;13449;49.374;8.584;2023-03-13T01:21:22;99816.19;;;10.12;78.20
24486;BME280;13449;49.374;8.584;2023-03-13T01:23:50;99819.41;;;10.22;77.94
24486;BME280;13449;49.374;8.584;2023-03-13T01:26:18;99806.78;;;10.14;78.63
24486;BME280;13449;49.374;8.584;2023-03-13T01:28:45;99808.28;;;10.17;78.53
24486;BME280;13449;49.374;8.584;2023-03-13T01:31:22;99799.47;;;10.15;78.73
24486;BME280;13449;49.374;8.584;2023-03-13T01:33:53;99799.47;;;10.15;79.06
24486;BME280;13449;49.374;8.584;2023-03-13T01:36:20;99793.34;;;10.13;78.87
24486;BME280;13449;49.374;8.584;2023-03-13T01:38:51;99791.66;;;10.12;79.24
24486;BME280;13449;49.374;8.584;2023-03-13T01:41:20;99784.94;;;10.08;79.50
24486;BME280;13449;49.374;8.584;2023-03-13T01:43:48;99785.97;;;10.07;79.00
24486;BME280;13449;49.374;8.584;2023-03-13T01:48:58;99783.50;;;10.12;79.06
24486;BME280;13449;49.374;8.584;2023-03-13T01:51:29;99781.59;;;10.12;78.92
24486;BME280;13449;49.374;8.584;2023-03-13T01:54:22;99768.81;;;10.13;79.30
24486;BME280;13449;49.374;8.584;2023-03-13T01:57:22;99774.41;;;10.33;78.67
24486;BME280;13449;49.374;8.584;2023-03-13T02:00:00;99767.09;;;10.33;79.28
24486;BME280;13449;49.374;8.584;2023-03-13T02:02:30;99769.00;;;10.39;78.40
24486;BME280;13449;49.374;8.584;2023-03-13T02:04:59;99758.56;;;10.49;78.00
24486;BME280;13449;49.374;8.584;2023-03-13T02:07:32;99758.56;;;10.49;77.90
24486;BME280;13449;49.374;8.584;2023-03-13T02:10:02;99756.50;;;10.58;77.71
24486;BME280;13449;49.374;8.584;2023-03-13T02:12:34;99745.22;;;10.68;77.22
24486;BME280;13449;49.374;8.584;2023-03-13T02:15:05;99745.66;;;10.78;76.77
24486;BME280;13449;49.374;8.584;2023-03-13T02:17:33;99745.66;;;10.84;76.55
24486;BME280;13449;49.374;8.584;2023-03-13T02:20:01;99743.59;;;10.93;75.58
24486;BME280;13449;49.374;8.584;2023-03-13T02:27:43;99718.84;;;10.94;76.64
24486;BME280;13449;49.374;8.584;2023-03-13T02:30:12;99720.56;;;11.02;76.44
24486;BME280;13449;49.374;8.584;2023-03-13T02:32:39;99721.78;;;11.06;75.90
24486;BME280;13449;49.374;8.584;2023-03-13T02:35:09;99726.84;;;11.15;75.01
24486;BME280;13449;49.374;8.584;2023-03-13T02:37:38;99710.47;;;11.09;76.03
24486;BME280;13449;49.374;8.584;2023-03-13T02:40:11;99707.75;;;11.15;75.99
24486;BME280;13449;49.374;8.584;2023-03-13T02:42:41;99706.91;;;11.15;75.29
24486;BME280;13449;49.374;8.584;2023-03-13T02:45:12;99697.88;;;11.21;75.21
24486;BME280;13449;49.374;8.584;2023-03-13T02:47:38;99697.47;;;11.24;75.17
24486;BME280;13449;49.374;8.584;2023-03-13T02:50:05;99692.84;;;11.18;76.34
24486;BME280;13449;49.374;8.584;2023-03-13T02:52:44;99686.16;;;11.21;76.20
24486;BME280;13449;49.374;8.584;2023-03-13T02:55:15;99701.47;;;11.41;75.19
24486;BME280;13449;49.374;8.584;2023-03-13T02:57:43;99688.84;;;11.40;75.02
24486;BME280;13449;49.374;8.584;2023-03-13T03:00:12;99671.00;;;11.44;75.31
24486;BME280;13449;49.374;8.584;2023-03-13T03:02:43;99675.22;;;11.47;75.30
24486;BME280;13449;49.374;8.584;2023-03-13T03:05:11;99665.13;;;11.47;75.65
24486;BME280;13449;49.374;8.584;2023-03-13T03:07:38;99673.53;;;11.46;75.61
24486;BME280;13449;49.374;8.584;2023-03-13T03:10:05;99658.19;;;11.51;75.81
24486;BME280;13449;49.374;8.584;2023-03-13T03:12:34;99658.38;;;11.56;75.55
24486;BME280;13449;49.374;8.584;2023-03-13T03:15:00;99649.34;;;11.56;76.01
24486;BME280;13449;49.374;8.584;2023-03-13T03:17:29;99651.25;;;11.55;75.72
24486;BME280;13449;49.374;8.584;2023-03-13T03:19:56;99646.59;;;11.62;76.13
24486;BME280;13449;49.374;8.584;2023-03-13T03:22:22;99645.13;;;11.67;75.90
24486;BME280;13449;49.374;8.584;2023-03-13T03:24:51;99639.66;;;11.67;76.61
24486;BME280;13449;49.374;8.584;2023-03-13T03:27:18;99636.75;;;11.68;76.54
24486;BME280;13449;49.374;8.584;2023-03-13T03:29:44;99633.59;;;11.64;77.14
24486;BME280;13449;49.374;8.584;2023-03-13T03:32:13;99627.09;;;11.66;77.27
24486;BME280;13449;49.374;8.584;2023-03-13T03:34:40;99625.63;;;11.70;77.71
24486;BME280;13449;49.374;8.584;2023-03-13T03:37:06;99639.47;;;11.75;77.60
24486;BME280;13449;49.374;8.584;2023-03-13T03:39:33;99634.44;;;11.72;77.81
24486;BME280;13449;49.374;8.584;2023-03-13T03:41:59;99632.72;;;11.77;78.16
24486;BME280;13449;49.374;8.584;2023-03-13T03:44:28;99621.56;;;11.85;78.26
24486;BME280;13449;49.374;8.584;2023-03-13T03:46:55;99619.50;;;11.87;78.23
24486;BME280;13449;49.374;8.584;2023-03-13T03:49:24;99619.50;;;11.87;78.72
24486;BME280;13449;49.374;8.584;2023-03-13T03:51:53;99623.47;;;11.85;79.21
24486;BME280;13449;49.374;8.584;2023-03-13T03:54:20;99620.56;;;11.80;79.55
24486;BME280;13449;49.374;8.584;2023-03-13T03:56:46;99619.09;;;11.84;79.71
24486;BME280;13449;49.374;8.584;2023-03-13T03:59:15;99614.47;;;11.84;80.70
24486;BME280;13449;49.374;8.584;2023-03-13T04:01:41;99611.47;;;11.92;80.54
24486;BME280;13449;49.374;8.584;2023-03-13T04:04:10;99615.44;;;11.96;80.94
24486;BME280;13449;49.374;8.584;2023-03-13T04:06:37;99605.19;;;11.92;81.29
24486;BME280;13449;49.374;8.584;2023-03-13T04:09:03;99622.59;;;11.97;81.66
24486;BME280;13449;49.374;8.584;2023-03-13T04:11:30;99623.03;;;11.94;82.24
24486;BME280;13449;49.374;8.584;2023-03-13T04:13:57;99628.47;;;12.01;82.68
24486;BME280;13449;49.374;8.584;2023-03-13T04:16:24;99617.38;;;11.96;83.41
24486;BME280;13449;49.374;8.584;2023-03-13T04:18:52;99612.06;;;12.01;83.80
24486;BME280;13449;49.374;8.584;2023-03-13T04:21:19;99613.94;;;12.07;83.90
24486;BME280;13449;49.374;8.584;2023-03-13T04:23:45;99620.47;;;12.06;85.11
24486;BME280;13449;49.374;8.584;2023-03-13T04:26:12;99618.78;;;12.05;84.34
24486;BME280;13449;49.374;8.584;2023-03-13T04:28:38;99609.97;;;12.03;85.65
24486;BME280;13449;49.374;8.584;2023-03-13T04:31:04;99612.06;;;12.01;85.79
24486;BME280;13449;49.374;8.584;2023-03-13T04:33:31;99611.22;;;12.00;85.91
24486;BME280;13449;49.374;8.584;2023-03-13T04:35:57;99603.03;;;12.00;86.35
24486;BME280;13449;49.374;8.584;2023-03-13T04:38:24;99607.66;;;12.00;86.21
24486;BME280;13449;49.374;8.584;2023-03-13T04:40:51;99608.53;;;11.94;87.17
24486;BME280;13449;49.374;8.584;2023-03-13T04:43:20;99600.97;;;11.89;86.89
24486;BME280;13449;49.374;8.584;2023-03-13T04:45:46;99599.94;;;11.90;87.71
24486;BME280;13449;49.374;8.584;2023-03-13T04:48:13;99604.50;;;11.96;87.13
24486;BME280;13449;49.374;8.584;2023-03-13T04:50:40;99594.44;;;11.97;87.36
24486;BME280;13449;49.374;8.584;2023-03-13T04:53:06;99602.88;;;11.95;87.62
24486;BME280;13449;49.374;8.584;2023-03-13T04:55:32;99597.81;;;11.99;87.61
24486;BME280;13449;49.374;8.584;2023-03-13T04:57:59;99588.34;;;11.95;86.88
24486;BME280;13449;49.374;8.584;2023-03-13T05:00:27;99592.75;;;12.02;87.24
24486;BME280;13449;49.374;8.584;2023-03-13T05:02:54;99596.97;;;11.98;86.93
24486;BME280;13449;49.374;8.584;2023-03-13T05:05:20;99592.78;;;11.96;87.32
24486;BME280;13449;49.374;8.584;2023-03-13T05:07:52;99587.91;;;11.98;87.13
24486;BME280;13449;49.374;8.584;2023-03-13T05:10:18;99596.72;;;12.00;87.34
24486;BME280;13449;49.374;8.584;2023-03-13T05:12:45;99588.53;;;12.06;86.92
24486;BME280;13449;49.374;8.584;2023-03-13T05:15:13;99588.53;;;12.00;87.25
24486;BME280;13449;49.374;8.584;2023-03-13T05:17:40;99593.78;;;12.01;86.65
24486;BME280;13449;49.374;8.584;2023-03-13T05:20:07;99591.91;;;12.02;86.52
24486;BME280;13449;49.374;8.584;2023-03-13T05:22:37;99589.78;;;12.04;86.71
24486;BME280;13449;49.374;8.584;2023-03-13T05:25:06;99580.53;;;12.05;86.41
24486;BME280;13449;49.374;8.584;2023-03-13T05:27:33;99591.25;;;12.06;86.38
24486;BME280;13449;49.374;8.584;2023-03-13T05:30:00;99582.81;;;12.08;85.98
24486;BME280;13449;49.374;8.584;2023-03-13T05:32:26;99575.69;;;12.07;85.98
24486;BME280;13449;49.374;8.584;2023-03-13T05:34:53;99580.09;;;12.08;85.43
24486;BME280;13449;49.374;8.584;2023-03-13T05:37:22;99565.97;;;12.11;85.68
24486;BME280;13449;49.374;8.584;2023-03-13T05:39:50;99563.88;;;12.13;85.54
24486;BME280;13449;49.374;8.584;2023-03-13T05:42:19;99560.75;;;12.09;85.87
24486;BME280;13449;49.374;8.584;2023-03-13T05:44:45;99565.13;;;12.17;85.17
24486;BME280;13449;49.374;8.584;2023-03-13T05:47:12;99570.34;;;12.19;84.80
24486;BME280;13449;49.374;8.584;2023-03-13T05:49:38;99571.44;;;12.18;85.37
24486;BME280;13449;49.374;8.584;2023-03-13T05:52:04;99566.41;;;12.15;85.78
24486;BME280;13449;49.374;8.584;2023-03-13T05:54:31;99563.22;;;12.18;85.58
24486;BME280;13449;49.374;8.584;2023-03-13T05:56:57;99565.72;;;12.19;85.71
24486;BME280;13449;49.374;8.584;2023-03-13T05:59:24;99557.72;;;12.24;85.26
24486;BME280;13449;49.374;8.584;2023-03-13T06:01:50;99557.50;;;12.26;85.29
24486;BME280;13449;49.374;8.584;2023-03-13T06:04:17;99544.00;;;12.31;85.77
24486;BME280;13449;49.374;8.584;2023-03-13T06:06:45;99546.09;;;12.35;84.96
24486;BME280;13449;49.374;8.584;2023-03-13T06:09:11;99539.13;;;12.39;85.08
24486;BME280;13449;49.374;8.584;2023-03-13T06:11:38;99533.25;;;12.36;85.21
24486;BME280;13449;49.374;8.584;2023-03-13T06:14:04;99539.97;;;12.40;85.63
24486;BME280;13449;49.374;8.584;2023-03-13T06:16:30;99541.75;;;12.52;85.04
24486;BME280;13449;49.374;8.584;2023-03-13T06:18:59;99535.88;;;12.49;85.48
24486;BME280;13449;49.374;8.584;2023-03-13T06:21:30;99532.72;;;12.52;85.85
24486;BME280;13449;49.374;8.584;2023-03-13T06:23:57;99533.72;;;12.57;85.81
24486;BME280;13449;49.374;8.584;2023-03-13T06:26:23;99539.38;;;12.63;85.86
24486;BME280;13449;49.374;8.584;2023-03-13T06:28:50;99532.16;;;12.68;85.64
24486;BME280;13449;49.374;8.584;2023-03-13T06:31:17;99537.69;;;12.62;86.11
24486;BME280;13449;49.374;8.584;2023-03-13T06:33:44;99543.56;;;12.65;86.45
24486;BME280;13449;49.374;8.584;2023-03-13T06:36:11;99544.84;;;12.63;87.00
24486;BME280;13449;49.374;8.584;2023-03-13T06:38:37;99556.56;;;12.70;86.84
24486;BME280;13449;49.374;8.584;2023-03-13T06:41:05;99560.81;;;12.66;87.18
24486;BME280;13449;49.374;8.584;2023-03-13T06:43:34;99543.34;;;12.67;87.47
24486;BME280;13449;49.374;8.584;2023-03-13T06:46:04;99557.84;;;12.67;88.16
24486;BME280;13449;49.374;8.584;2023-03-13T06:48:30;99555.28;;;12.72;87.67
24486;BME280;13449;49.374;8.584;2023-03-13T06:50:57;99540.53;;;12.73;88.36
24486;BME280;13449;49.374;8.584;2023-03-13T06:53:24;99533.19;;;12.74;88.15
24486;BME280;13449;49.374;8.584;2023-03-13T06:55:50;99532.72;;;12.77;88.67
24486;BME280;13449;49.374;8.584;2023-03-13T06:58:17;99535.63;;;12.82;88.50
24486;BME280;13449;49.374;8.584;2023-03-13T07:01:04;99545.09;;;12.79;88.61
24486;BME280;13449;49.374;8.584;2023-03-13T07:03:32;99538.13;;;12.83;88.74
24486;BME280;13449;49.374;8.584;2023-03-13T07:06:00;99524.25;;;12.85;89.17
24486;BME280;13449;49.374;8.584;2023-03-13T07:08:29;99513.91;;;12.87;89.31
24486;BME280;13449;49.374;8.584;2023-03-13T07:11:02;99504.56;;;12.94;89.05
24486;BME280;13449;49.374;8.584;2023-03-13T07:13:30;99500.31;;;12.98;89.09
24486;BME280;13449;49.374;8.584;2023-03-13T07:16:00;99493.72;;;13.06;88.65
24486;BME280;13449;49.374;8.584;2023-03-13T07:18:30;99493.06;;;13.11;88.71
24486;BME280;13449;49.374;8.584;2023-03-13T07:20:58;99482.28;;;13.16;88.53
24486;BME280;13449;49.374;8.584;2023-03-13T07:23:26;99485.41;;;13.19;88.76
24486;BME280;13449;49.374;8.584;2023-03-13T07:26:01;99477.59;;;13.23;88.21
24486;BME280;13449;49.374;8.584;2023-03-13T07:28:29;99488.59;;;13.34;87.89
24486;BME280;13449;49.374;8.584;2023-03-13T07:31:04;99492.22;;;13.46;87.37
24486;BME280;13449;49.374;8.584;2023-03-13T07:33:32;99493.78;;;13.61;86.37
24486;BME280;13449;49.374;8.584;2023-03-13T07:35:58;99510.88;;;13.74;85.85
24486;BME280;13449;49.374;8.584;2023-03-13T07:38:25;99516.53;;;13.91;85.50
24486;BME280;13449;49.374;8.584;2023-03-13T07:40:53;99527.22;;;13.81;84.95
24486;BME280;13449;49.374;8.584;2023-03-13T07:43:21;99531.72;;;13.75;85.32
24486;BME280;13449;49.374;8.584;2023-03-13T07:48:18;99525.41;;;13.75;85.86
24486;BME280;13449;49.374;8.584;2023-03-13T07:50:45;99524.63;;;13.86;85.44
24486;BME280;13449;49.374;8.584;2023-03-13T07:53:11;99521.25;;;13.84;85.42
24486;BME280;13449;49.374;8.584;2023-03-13T07:55:41;99513.56;;;13.92;85.01
24486;BME280;13449;49.374;8.584;2023-03-13T07:58:07;99506.66;;;13.90;85.44
24486;BME280;13449;49.374;8.584;2023-03-13T08:00:34;99505.25;;;13.99;85.40
24486;BME280;13449;49.374;8.584;2023-03-13T08:03:00;99511.34;;;14.01;85.22
24486;BME280;13449;49.374;8.584;2023-03-13T08:05:27;99525.19;;;14.06;85.13
24486;BME280;13449;49.374;8.584;2023-03-13T08:07:55;99526.13;;;14.00;85.20
24486;BME280;13449;49.374;8.584;2023-03-13T08:10:22;99531.38;;;14.01;84.82
24486;BME280;13449;49.374;8.584;2023-03-13T08:12:48;99529.47;;;14.02;85.31
24486;BME280;13449;49.374;8.584;2023-03-13T08:15:15;99519.19;;;13.97;85.15
24486;BME280;13449;49.374;8.584;2023-03-13T08:17:43;99521.31;;;13.95;84.96
24486;BME280;13449;49.374;8.584;2023-03-13T08:20:10;99519.66;;;13.94;85.39
24486;BME280;13449;49.374;8.584;2023-03-13T08:22:36;99525.66;;;14.03;84.96
24486;BME280;13449;49.374;8.584;2023-03-13T08:25:03;99520.16;;;14.03;84.51
24486;BME280;13449;49.374;8.584;2023-03-13T08:27:30;99525.66;;;14.03;84.54
24486;BME280;13449;49.374;8.584;2023-03-13T08:29:56;99522.59;;;14.11;83.46
24486;BME280;13449;49.374;8.584;2023-03-13T08:32:23;99523.44;;;14.12;83.61
24486;BME280;13449;49.374;8.584;2023-03-13T08:34:51;99520.84;;;14.17;83.58
24486;BME280;13449;49.374;8.584;2023-03-13T08:37:18;99517.84;;;14.18;83.50
24486;BME280;13449;49.374;8.584;2023-03-13T08:39:44;99530.72;;;14.18;82.82
24486;BME280;13449;49.374;8.584;2023-03-13T08:42:11;99535.34;;;14.17;83.20
24486;BME280;13449;49.374;8.584;2023-03-13T08:44:39;99536.13;;;14.24;82.67
24486;BME280;13449;49.374;8.584;2023-03-13T08:47:06;99529.69;;;14.30;81.62
24486;BME280;13449;49.374;8.584;2023-03-13T08:49:33;99519.31;;;14.32;81.40
24486;BME280;13449;49.374;8.584;2023-03-13T08:52:00;99520.84;;;14.46;81.61
24486;BME280;13449;49.374;8.584;2023-03-13T08:54:31;99528.44;;;14.44;81.29
24486;BME280;13449;49.374;8.584;2023-03-13T08:56:57;99528.44;;;14.44;80.87
24486;BME280;13449;49.374;8.584;2023-03-13T08:59:25;99524.53;;;14.52;80.86
24486;BME280;13449;49.374;8.584;2023-03-13T09:01:51;99523.81;;;14.57;79.83
24486;BME280;13449;49.374;8.584;2023-03-13T09:04:18;99531.47;;;14.66;80.29
24486;BME280;13449;49.374;8.584;2023-03-13T09:06:45;99533.38;;;14.54;80.10
24486;BME280;13449;49.374;8.584;2023-03-13T09:09:12;99539.44;;;14.56;80.83
24486;BME280;13449;49.374;8.584;2023-03-13T09:11:39;99533.00;;;14.62;80.02
24486;BME280;13449;49.374;8.584;2023-03-13T09:14:07;99520.78;;;14.76;79.23
24486;BME280;13449;49.374;8.584;2023-03-13T09:16:34;99521.50;;;15.18;79.02
24486;BME280;13449;49.374;8.584;2023-03-13T09:19:00;99517.91;;;15.53;77.80
24486;BME280;13449;49.374;8.584;2023-03-13T09:21:34;99531.53;;;15.59;76.88
24486;BME280;13449;49.374;8.584;2023-03-13T09:24:00;99518.34;;;15.73;75.90
24486;BME280;13449;49.374;8.584;2023-03-13T09:26:27;99518.31;;;15.84;75.48
24486;BME280;13449;49.374;8.584;2023-03-13T09:28:54;99516.81;;;15.93;74.88
24486;BME280;13449;49.374;8.584;2023-03-13T09:31:29;99519.38;;;15.83;74.63
24486;BME280;13449;49.374;8.584;2023-03-13T09:33:56;99525.25;;;15.75;74.47
24486;BME280;13449;49.374;8.584;2023-03-13T09:36:25;99527.31;;;15.57;74.14
24486;BME280;13449;49.374;8.584;2023-03-13T09:38:54;99517.75;;;15.71;74.63
24486;BME280;13449;49.374;8.584;2023-03-13T09:49:37;99508.22;;;15.38;75.66
24486;BME280;13449;49.374;8.584;2023-03-13T09:52:24;99497.50;;;15.37;76.16
24486;BME280;13449;49.374;8.584;2023-03-13T09:55:02;99485.28;;;15.44;76.04
24486;BME280;13449;49.374;8.584;2023-03-13T09:57:49;99493.75;;;15.66;75.19
24486;BME280;13449;49.374;8.584;2023-03-13T10:00:21;99493.41;;;15.63;74.59
24486;BME280;13449;49.374;8.584;2023-03-13T10:02:59;99473.47;;;15.84;74.69
24486;BME280;13449;49.374;8.584;2023-03-13T10:05:28;99481.53;;;16.02;74.72
24486;BME280;13449;49.374;8.584;2023-03-13T10:07:58;99471.72;;;16.06;73.96
24486;BME280;13449;49.374;8.584;2023-03-13T10:10:38;99466.94;;;16.02;73.88
24486;BME280;13449;49.374;8.584;2023-03-13T10:13:35;99464.00;;;15.91;73.21
24486;BME280;13449;49.374;8.584;2023-03-13T10:16:14;99467.28;;;16.05;73.19
24486;BME280;13449;49.374;8.584;2023-03-13T10:18:47;99457.16;;;16.22;72.78
24486;BME280;13449;49.374;8.584;2023-03-13T10:21:19;99442.13;;;16.75;72.75
24486;BME280;13449;49.374;8.584;2023-03-13T10:24:16;99468.91;;;16.79;70.73
24486;BME280;13449;49.374;8.584;2023-03-13T10:26:44;99464.81;;;16.82;70.36
24486;BME280;13449;49.374;8.584;2023-03-13T10:29:24;99459.94;;;17.06;70.30
24486;BME280;13449;49.374;8.584;2023-03-13T10:32:12;99452.22;;;17.24;70.37
24486;BME280;13449;49.374;8.584;2023-03-13T10:37:20;99450.84;;;17.05;69.26
24486;BME280;13449;49.374;8.584;2023-03-13T10:39:47;99444.75;;;17.03;69.21
24486;BME280;13449;49.374;8.584;2023-03-13T10:42:20;99443.44;;;16.89;69.71
24486;BME280;13449;49.374;8.584;2023-03-13T10:44:49;99442.50;;;17.00;69.13
24486;BME280;13449;49.374;8.584;2023-03-13T10:47:21;99426.25;;;16.82;69.69
24486;BME280;13449;49.374;8.584;2023-03-13T10:49:50;99427.38;;;17.03;69.50
24486;BME280;13449;49.374;8.584;2023-03-13T10:52:44;99426.78;;;17.39;68.41
24486;BME280;13449;49.374;8.584;2023-03-13T10:55:20;99420.56;;;17.49;68.47
24486;BME280;13449;49.374;8.584;2023-03-13T10:58:05;99418.34;;;17.67;67.46
24486;BME280;13449;49.374;8.584;2023-03-13T11:00:38;99416.91;;;17.86;67.25
24486;BME280;13449;49.374;8.584;2023-03-13T11:03:17;99415.44;;;18.06;67.46
24486;BME280;13449;49.374;8.584;2023-03-13T11:05:57;99414.28;;;18.28;65.49
24486;BME280;13449;49.374;8.584;2023-03-13T11:08:26;99406.13;;;18.44;65.13
24486;BME280;13449;49.374;8.584;2023-03-13T11:13:41;99406.22;;;18.54;64.58
24486;BME280;13449;49.374;8.584;2023-03-13T11:16:18;99393.78;;;18.51;63.77
24486;BME280;13449;49.374;8.584;2023-03-13T11:24:37;99363.59;;;18.45;64.54
24486;BME280;13449;49.374;8.584;2023-03-13T11:32:54;99338.03;;;18.22;64.98
24486;BME280;13449;49.374;8.584;2023-03-13T11:37:55;99328.13;;;18.21;65.42
24486;BME280;13449;49.374;8.584;2023-03-13T11:40:52;99330.88;;;18.21;64.05
24486;BME280;13449;49.374;8.584;2023-03-13T11:51:38;99303.19;;;18.95;63.03
24486;BME280;13449;49.374;8.584;2023-03-13T11:57:24;99296.78;;;19.62;61.46
24486;BME280;13449;49.374;8.584;2023-03-13T12:00:18;99295.97;;;19.61;61.29
24486;BME280;13449;49.374;8.584;2023-03-13T12:02:53;99287.41;;;19.53;61.25
24486;BME280;13449;49.374;8.584;2023-03-13T12:05:22;99281.00;;;19.42;60.65
24486;BME280;13449;49.374;8.584;2023-03-13T12:08:04;99263.31;;;19.53;60.84
24486;BME280;13449;49.374;8.584;2023-03-13T12:10:36;99259.16;;;19.51;61.06
24486;BME280;13449;49.374;8.584;2023-03-13T12:13:16;99255.59;;;19.55;60.35
24486;BME280;13449;49.374;8.584;2023-03-13T12:15:49;99232.63;;;19.50;61.24
24486;BME280;13449;49.374;8.584;2023-03-13T12:18:37;99247.28;;;19.65;60.36
24486;BME280;13449;49.374;8.584;2023-03-13T12:21:34;99232.03;;;19.38;60.48
24486;BME280;13449;49.374;8.584;2023-03-13T12:27:07;99210.78;;;19.43;60.06
24486;BME280;13449;49.374;8.584;2023-03-13T12:32:15;99186.75;;;19.49;61.73
24486;BME280;13449;49.374;8.584;2023-03-13T12:37:39;99187.56;;;19.69;60.83
24486;BME280;13449;49.374;8.584;2023-03-13T12:40:36;99190.59;;;19.73;59.91
24486;BME280;13449;49.374;8.584;2023-03-13T12:45:35;99186.19;;;19.67;59.63
24486;BME280;13449;49.374;8.584;2023-03-13T12:58:56;99149.94;;;19.53;59.33
24486;BME280;13449;49.374;8.584;2023-03-13T13:01:45;99123.97;;;19.44;61.16
24486;BME280;13449;49.374;8.584;2023-03-13T13:04:40;99132.00;;;19.46;60.66
24486;BME280;13449;49.374;8.584;2023-03-13T13:07:15;99130.88;;;19.57;60.26
24486;BME280;13449;49.374;8.584;2023-03-13T13:12:37;99129.19;;;19.71;59.48
24486;BME280;13449;49.374;8.584;2023-03-13T13:15:21;99099.84;;;19.80;60.49
24486;BME280;13449;49.374;8.584;2023-03-13T13:20:47;99121.34;;;20.13;57.91
24486;BME280;13449;49.374;8.584;2023-03-13T13:23:52;99130.41;;;20.44;56.74
24486;BME280;13449;49.374;8.584;2023-03-13T13:28:52;99121.16;;;20.64;56.22
24486;BME280;13449;49.374;8.584;2023-03-13T13:36:57;99088.84;;;20.49;55.63
24486;BME280;13449;49.374;8.584;2023-03-13T13:44:57;99091.94;;;20.92;53.07
24486;BME280;13449;49.374;8.584;2023-03-13T13:47:26;99074.72;;;20.95;54.42
24486;BME280;13449;49.374;8.584;2023-03-13T13:49:55;99080.16;;;21.05;53.46
24486;BME280;13449;49.374;8.584;2023-03-13T13:52:36;99075.44;;;21.10;53.22
24486;BME280;13449;49.374;8.584;2023-03-13T13:57:59;99038.34;;;21.01;54.35
24486;BME280;13449;49.374;8.584;2023-03-13T14:00:37;99031.06;;;21.15;54.18
24486;BME280;13449;49.374;8.584;2023-03-13T14:03:24;99040.28;;;21.63;53.04
24486;BME280;13449;49.374;8.584;2023-03-13T14:05:54;99057.66;;;21.45;51.93
24486;BME280;13449;49.374;8.584;2023-03-13T14:08:36;99036.34;;;21.41;52.80
24486;BME280;13449;49.374;8.584;2023-03-13T14:11:35;99032.03;;;21.30;52.23
24486;BME280;13449;49.374;8.584;2023-03-13T14:14:20;99028.19;;;21.54;50.70
24486;BME280;13449;49.374;8.584;2023-03-13T14:16:49;99018.88;;;21.69;51.95
24486;BME280;13449;49.374;8.584;2023-03-13T14:21:46;99024.00;;;21.57;50.66
24486;BME280;13449;49.374;8.584;2023-03-13T14:24:14;99012.19;;;21.46;51.00
24486;BME280;13449;49.374;8.584;2023-03-13T14:26:42;98986.38;;;21.46;51.79
24486;BME280;13449;49.374;8.584;2023-03-13T14:29:18;98986.44;;;21.41;51.69
24486;BME280;13449;49.374;8.584;2023-03-13T14:31:53;98971.94;;;21.49;51.36
24486;BME280;13449;49.374;8.584;2023-03-13T14:34:20;98977.72;;;21.52;52.09
24486;BME280;13449;49.374;8.584;2023-03-13T14:36:55;98969.75;;;21.46;50.69
24486;BME280;13449;49.374;8.584;2023-03-13T14:39:44;98965.19;;;21.31;50.44
24486;BME280;13449;49.374;8.584;2023-03-13T14:42:12;98958.88;;;21.26;51.31
24486;BME280;13449;49.374;8.584;2023-03-13T14:44:43;98931.00;;;21.12;51.99
24486;BME280;13449;49.374;8.584;2023-03-13T14:47:32;98933.44;;;21.18;51.02
24486;BME280;13449;49.374;8.584;2023-03-13T14:50:10;98915.69;;;21.19;51.31
24486;BME280;13449;49.374;8.584;2023-03-13T14:52:45;98907.38;;;21.19;51.50
24486;BME280;13449;49.374;8.584;2023-03-13T15:00:49;98858.34;;;21.15;52.12